createdAt,value
2023-04-16T00:02:04.904Z,6.97
2023-04-16T00:06:29.883Z,7.02
2023-04-16T00:11:13.743Z,7.09
2023-04-16T00:15:37.449Z,7.14
2023-04-16T00:20:01.501Z,7.19
2023-04-16T00:24:48.704Z,7.08
2023-04-16T00:29:15.799Z,7.09
2023-04-16T00:33:39.748Z,7.19
2023-04-16T00:38:04.703Z,7.23
2023-04-16T00:42:23.505Z,7.25
2023-04-16T00:46:48.561Z,7.16
2023-04-16T00:51:12.549Z,6.95
2023-04-16T00:55:36.626Z,6.95
2023-04-16T01:00:21.470Z,6.99
2023-04-16T01:04:45.732Z,6.92
2023-04-16T01:09:13.006Z,6.69
2023-04-16T01:13:36.872Z,6.55
2023-04-16T01:18:00.850Z,6.45
2023-04-16T01:22:25.783Z,6.31
2023-04-16T01:26:49.588Z,6.18
2023-04-16T01:31:14.592Z,6.07
2023-04-16T01:35:47.897Z,6.01
2023-04-16T01:40:11.880Z,5.91
2023-04-16T01:44:37.279Z,5.83
2023-04-16T01:49:20.881Z,5.75
2023-04-16T01:53:44.872Z,5.80
2023-04-16T01:58:29.551Z,5.88
2023-04-16T02:02:53.833Z,5.77
2023-04-16T02:07:18.986Z,5.74
2023-04-16T02:11:43.882Z,5.77
2023-04-16T02:16:08.179Z,5.72
2023-04-16T02:20:32.358Z,5.64
2023-04-16T02:24:50.496Z,5.49
2023-04-16T02:29:16.505Z,5.43
2023-04-16T02:33:41.474Z,5.29
2023-04-16T02:38:05.389Z,5.35
2023-04-16T02:42:29.353Z,5.40
2023-04-16T02:46:53.504Z,5.44
2023-04-16T02:51:37.454Z,5.53
2023-04-16T02:56:01.713Z,5.64
2023-04-16T03:00:25.726Z,5.74
2023-04-16T03:04:49.613Z,5.87
2023-04-16T03:09:13.625Z,5.95
2023-04-16T03:13:37.470Z,5.99
2023-04-16T03:18:01.395Z,5.95
2023-04-16T03:22:25.293Z,6.00
2023-04-16T03:26:49.094Z,6.03
2023-04-16T03:31:15.961Z,6.01
2023-04-16T03:35:40.093Z,5.98
2023-04-16T03:40:05.104Z,5.98
2023-04-16T03:44:28.940Z,5.85
2023-04-16T03:48:53.146Z,5.54
2023-04-16T03:53:17.568Z,5.29
2023-04-16T03:57:41.426Z,5.27
2023-04-16T04:02:06.240Z,5.33
2023-04-16T04:06:50.095Z,5.37
2023-04-16T04:11:14.367Z,5.36
2023-04-16T04:15:38.738Z,5.19
2023-04-16T04:20:02.932Z,5.14
2023-04-16T04:24:26.878Z,5.11
2023-04-16T04:28:51.061Z,5.16
2023-04-16T04:33:15.721Z,5.32
2023-04-16T04:37:39.623Z,5.35
2023-04-16T04:42:06.536Z,5.34
2023-04-16T04:46:30.461Z,5.37
2023-04-16T04:50:54.473Z,5.33
2023-04-16T04:55:18.653Z,5.40
2023-04-16T04:59:42.472Z,5.52
2023-04-16T05:04:06.479Z,5.64
2023-04-16T05:08:34.226Z,5.81
2023-04-16T05:13:13.546Z,6.00
2023-04-16T05:18:05.325Z,6.16
2023-04-16T05:22:29.284Z,6.29
2023-04-16T05:26:53.312Z,6.44
2023-04-16T05:31:17.539Z,6.59
2023-04-16T05:35:41.647Z,6.74
2023-04-16T05:40:05.558Z,6.91
2023-04-16T05:44:29.488Z,7.08
2023-04-16T05:48:53.402Z,7.29
2023-04-16T05:53:20.299Z,7.52
2023-04-16T05:57:44.332Z,7.73
2023-04-16T06:02:08.246Z,7.91
2023-04-16T06:06:14.301Z,8.22
2023-04-16T06:10:38.137Z,8.50
2023-04-16T06:15:02.167Z,8.77
2023-04-16T06:19:26.024Z,9.04
2023-04-16T06:23:49.973Z,9.36
2023-04-16T06:28:14.901Z,9.64
2023-04-16T06:32:38.873Z,9.96
2023-04-16T06:37:02.745Z,10.32
2023-04-16T06:41:27.176Z,10.64
2023-04-16T06:45:51.222Z,10.93
2023-04-16T06:50:15.229Z,10.98
2023-04-16T06:54:39.152Z,10.90
2023-04-16T06:59:03.948Z,10.89
2023-04-16T07:03:28.791Z,11.06
2023-04-16T07:07:52.989Z,11.37
2023-04-16T07:12:16.928Z,11.60
2023-04-16T07:16:40.896Z,11.76
2023-04-16T07:21:04.830Z,12.02
2023-04-16T07:25:29.770Z,12.31
2023-04-16T07:29:53.703Z,12.49
2023-04-16T07:34:17.599Z,12.67
2023-04-16T07:38:41.583Z,12.80
2023-04-16T07:43:05.519Z,13.07
2023-04-16T07:47:29.496Z,13.33
2023-04-16T07:51:53.638Z,13.51
2023-04-16T07:56:17.653Z,13.49
2023-04-16T08:00:42.587Z,13.68
2023-04-16T08:05:06.508Z,13.84
2023-04-16T08:09:30.528Z,13.87
2023-04-16T08:13:56.657Z,14.25
2023-04-16T08:18:22.572Z,14.45
2023-04-16T08:22:46.398Z,14.49
2023-04-16T08:27:18.436Z,14.48
2023-04-16T08:31:43.655Z,14.36
2023-04-16T08:36:08.695Z,14.59
2023-04-16T08:40:32.772Z,14.50
2023-04-16T08:44:58.700Z,14.61
2023-04-16T08:49:22.661Z,14.70
2023-04-16T08:53:47.556Z,14.76
2023-04-16T08:58:11.479Z,14.66
2023-04-16T09:02:42.412Z,14.86
2023-04-16T09:06:59.323Z,15.14
2023-04-16T09:11:24.897Z,15.40
2023-04-16T09:15:48.890Z,15.34
2023-04-16T09:20:12.870Z,15.09
2023-04-16T09:24:36.813Z,15.05
2023-04-16T09:29:19.146Z,15.24
2023-04-16T09:33:58.165Z,15.05
2023-04-16T09:38:22.067Z,14.95
2023-04-16T09:42:47.498Z,14.93
2023-04-16T09:47:11.487Z,14.77
2023-04-16T09:51:35.288Z,14.77
2023-04-16T09:56:05.022Z,14.81
2023-04-16T10:00:31.272Z,15.11
2023-04-16T10:04:55.749Z,15.31
2023-04-16T10:09:18.579Z,15.54
2023-04-16T10:13:48.195Z,15.76
2023-04-16T10:18:12.123Z,16.03
2023-04-16T10:22:35.330Z,16.12
2023-04-16T10:26:59.198Z,16.04
2023-04-16T10:31:28.956Z,16.07
2023-04-16T10:36:07.034Z,16.06
2023-04-16T10:40:32.269Z,16.12
2023-04-16T10:44:59.883Z,16.10
2023-04-16T10:49:27.686Z,16.18
2023-04-16T10:54:00.476Z,16.32
2023-04-16T10:57:59.869Z,16.48
2023-04-16T11:02:33.277Z,16.64
2023-04-16T11:06:57.516Z,16.68
2023-04-16T11:11:22.609Z,16.85
2023-04-16T11:15:48.878Z,16.86
2023-04-16T11:20:32.699Z,17.17
2023-04-16T11:25:03.426Z,17.40
2023-04-16T11:29:33.473Z,17.45
2023-04-16T11:33:57.364Z,17.63
2023-04-16T11:38:06.355Z,17.75
2023-04-16T11:42:31.335Z,17.82
2023-04-16T11:47:00.673Z,17.90
2023-04-16T11:51:25.256Z,17.84
2023-04-16T11:55:52.040Z,17.62
2023-04-16T12:00:24.283Z,17.58
2023-04-16T12:04:48.869Z,17.47
2023-04-16T12:09:12.862Z,17.53
2023-04-16T12:13:51.084Z,17.53
2023-04-16T12:18:21.079Z,17.58
2023-04-16T12:22:45.987Z,17.68
2023-04-16T12:27:20.971Z,17.61
2023-04-16T12:31:51.813Z,17.49
2023-04-16T12:36:15.770Z,17.45
2023-04-16T12:40:41.808Z,17.59
2023-04-16T12:45:07.899Z,17.65
2023-04-16T12:49:37.131Z,17.71
2023-04-16T12:54:01.600Z,17.57
2023-04-16T12:58:27.097Z,17.48
2023-04-16T13:02:53.448Z,17.46
2023-04-16T13:07:18.327Z,17.47
2023-04-16T13:11:48.185Z,17.42
2023-04-16T13:16:12.267Z,17.47
2023-04-16T13:20:36.202Z,17.51
2023-04-16T13:25:00.673Z,17.48
2023-04-16T13:29:24.700Z,17.48
2023-04-16T13:33:49.939Z,17.36
2023-04-16T13:38:20.657Z,17.26
2023-04-16T13:42:44.620Z,17.10
2023-04-16T13:47:08.522Z,17.07
2023-04-16T13:51:33.715Z,17.14
2023-04-16T13:55:38.309Z,17.23
2023-04-16T14:00:02.928Z,17.30
2023-04-16T14:04:27.987Z,17.34
2023-04-16T14:08:57.673Z,17.36
2023-04-16T14:13:21.632Z,17.38
2023-04-16T14:17:46.603Z,17.30
2023-04-16T14:21:51.267Z,17.17
2023-04-16T14:26:15.240Z,17.08
2023-04-16T14:30:41.182Z,17.02
2023-04-16T14:35:07.174Z,16.97
2023-04-16T14:39:34.546Z,16.95
2023-04-16T14:44:04.133Z,16.89
2023-04-16T14:48:28.064Z,16.81
2023-04-16T14:52:52.383Z,16.78
2023-04-16T14:57:16.508Z,16.77
2023-04-16T15:01:46.770Z,16.74
2023-04-16T15:06:16.707Z,16.68
2023-04-16T15:10:44.916Z,16.66
2023-04-16T15:15:09.491Z,16.66
2023-04-16T15:19:34.775Z,16.60
2023-04-16T15:24:00.004Z,16.43
2023-04-16T15:28:26.551Z,16.30
2023-04-16T15:33:05.318Z,16.16
2023-04-16T15:37:31.256Z,16.00
2023-04-16T15:42:07.301Z,15.94
2023-04-16T15:46:31.815Z,15.82
2023-04-16T15:50:57.935Z,15.64
2023-04-16T15:55:22.130Z,15.44
2023-04-16T15:59:59.254Z,15.25
2023-04-16T16:04:42.802Z,15.06
2023-04-16T16:09:07.137Z,14.85
2023-04-16T16:13:32.014Z,14.65
2023-04-16T16:17:59.580Z,14.48
2023-04-16T16:22:25.314Z,14.32
2023-04-16T16:26:49.706Z,14.21
2023-04-16T16:31:14.536Z,14.12
2023-04-16T16:35:38.482Z,14.04
2023-04-16T16:40:03.453Z,13.96
2023-04-16T16:44:30.458Z,13.89
2023-04-16T16:48:54.316Z,13.81
2023-04-16T16:53:17.091Z,13.80
2023-04-16T16:57:43.457Z,13.82
2023-04-16T17:02:09.725Z,13.78
2023-04-16T17:06:37.026Z,13.77
2023-04-16T17:11:06.560Z,13.73
2023-04-16T17:15:33.536Z,13.66
2023-04-16T17:19:58.492Z,13.64
2023-04-16T17:24:22.531Z,13.57
2023-04-16T17:28:46.393Z,13.46
2023-04-16T17:33:10.325Z,13.35
2023-04-16T17:37:38.598Z,13.29
2023-04-16T17:42:11.063Z,13.24
2023-04-16T17:46:35.115Z,13.24
2023-04-16T17:51:11.238Z,13.10
2023-04-16T17:55:38.696Z,13.01
2023-04-16T18:00:02.756Z,12.95
2023-04-16T18:04:31.863Z,12.89
2023-04-16T18:08:58.912Z,12.80
2023-04-16T18:13:27.864Z,12.64
2023-04-16T18:17:52.836Z,12.50
2023-04-16T18:22:16.979Z,12.35
2023-04-16T18:26:41.307Z,12.13
2023-04-16T18:31:06.266Z,11.94
2023-04-16T18:35:38.042Z,11.84
2023-04-16T18:40:02.109Z,11.75
2023-04-16T18:44:35.271Z,11.71
2023-04-16T18:49:09.590Z,11.71
2023-04-16T18:53:39.887Z,11.74
2023-04-16T18:58:33.851Z,11.74
2023-04-16T19:02:55.992Z,11.73
2023-04-16T19:07:41.035Z,11.70
2023-04-16T19:12:11.961Z,11.69
2023-04-16T19:16:58.990Z,11.69
2023-04-16T19:21:26.906Z,11.66
2023-04-16T19:26:11.055Z,11.62
2023-04-16T19:30:39.753Z,11.61
2023-04-16T19:35:09.701Z,11.61
2023-04-16T19:40:01.817Z,11.52
2023-04-16T19:44:28.176Z,11.46
2023-04-16T19:48:56.609Z,11.41
2023-04-16T19:53:58.961Z,11.34
2023-04-16T19:58:27.510Z,11.30
2023-04-16T20:02:56.899Z,11.21
2023-04-16T20:07:40.960Z,11.11
2023-04-16T20:12:07.909Z,11.05
2023-04-16T20:16:32.853Z,10.93
2023-04-16T20:20:57.924Z,10.79
2023-04-16T20:25:14.990Z,10.58
2023-04-16T20:29:38.981Z,10.34
2023-04-16T20:34:03.997Z,10.13
2023-04-16T20:38:36.789Z,10.02
2023-04-16T20:43:09.565Z,9.95
2023-04-16T20:47:34.386Z,9.94
2023-04-16T20:52:01.276Z,9.95
2023-04-16T20:56:26.237Z,9.97
2023-04-16T21:00:51.384Z,10.07
2023-04-16T21:05:18.752Z,10.19
2023-04-16T21:09:44.677Z,10.19
2023-04-16T21:14:08.365Z,10.05
2023-04-16T21:18:37.838Z,9.88
2023-04-16T21:23:02.892Z,9.78
2023-04-16T21:27:27.803Z,9.74
2023-04-16T21:31:54.058Z,9.73
2023-04-16T21:36:19.144Z,9.74
2023-04-16T21:40:43.428Z,9.75
2023-04-16T21:45:08.390Z,9.62
2023-04-16T21:49:32.522Z,9.53
2023-04-16T21:53:57.905Z,9.45
2023-04-16T21:58:22.921Z,9.37
2023-04-16T22:02:47.071Z,9.37
2023-04-16T22:07:12.450Z,9.37
2023-04-16T22:11:36.908Z,9.37
2023-04-16T22:16:11.683Z,9.32
2023-04-16T22:20:37.041Z,9.25
2023-04-16T22:25:02.347Z,9.24
2023-04-16T22:29:26.766Z,9.29
2023-04-16T22:33:50.776Z,9.45
2023-04-16T22:38:37.129Z,9.48
2023-04-16T22:43:10.435Z,9.56
2023-04-16T22:47:38.558Z,9.62
2023-04-16T22:52:27.906Z,9.68
2023-04-16T22:57:01.382Z,9.72
2023-04-16T23:01:28.110Z,9.71
2023-04-16T23:05:54.117Z,9.80
2023-04-16T23:10:21.080Z,9.80
2023-04-16T23:14:46.211Z,9.76
2023-04-16T23:19:10.497Z,9.68
2023-04-16T23:23:34.815Z,9.63
2023-04-16T23:28:00.834Z,9.66
2023-04-16T23:32:25.141Z,9.65
2023-04-16T23:36:49.453Z,9.57
2023-04-16T23:41:13.115Z,9.48
2023-04-16T23:45:36.992Z,9.42
2023-04-16T23:50:02.986Z,9.45
2023-04-16T23:54:35.929Z,9.49
2023-04-16T23:59:00.828Z,9.55
